Airport View

Enter AWOS ICAO identifier for current METAR.

ex. KFNL

CYXT 080500Z 17012KT 20SM FEW005 FEW020 SCT040 BKN060 BKN100 12/10 A3000 RMK CF1CU1CU2SC3AC1 CF TR SLP166

8 Aug 2020 05:48

Other Area AWOS: CYYD - CWHL - CYPR - CWLC

TAF CYXT 080038Z 0801/0813 20015G25KT P6SM FEW008 SCT015 BKN030 TEMPO 0801/0808 P6SM -SHRA SCT008 BKN015 OVC030 BECMG 0803/0805 18012KT FM080800 18012KT P6SM SCT006 OVC025 TEMPO 0808/0813 5SM -SHRA BR BKN006 OVC015 RMK NXT FCST BY 080700Z